CPA751 VHHH-VTBS
Flight info
| Callsign | CPA751 |
|---|---|
| Flight time | 2h 26m |
| Altitude | 34100 |
| Route | PECAN V10 SIKOU/K0845S1040 A202 ASSAD/K0841F341 A202 VILAO/N0453F341 A202 RAMEI W42 PAKRI Y13 RUKSA EASTE1C |
| Aircraft | A21N/M-SDE2E3FGHIRWXY/LB1 |
Departure
| Time | 2026-05-07 11:53 |
|---|---|
| Airport | Hong Kong International Airport (VHHH) |
Arrival
| Time | 2026-05-07 14:19 |
|---|---|
| Airport | Suvarnabhumi Airport (VTBS) |
| Time | Latitude | Longitude | Altitude | Speed | Heading |
|---|---|---|---|---|---|
| 2026-05-07 10:59 | 22.31544 | 113.93209 | 38 ft | 0 kts | 179° |
| 2026-05-07 11:34 | 22.31559 | 113.93209 | 37 ft | 4 kts | 179° |
| 2026-05-07 11:34 | 22.31580 | 113.93208 | 37 ft | 4 kts | 178° |
| 2026-05-07 11:34 | 22.31607 | 113.93206 | 37 ft | 4 kts | 174° |
| 2026-05-07 11:35 | 22.31634 | 113.93202 | 37 ft | 4 kts | 169° |
| 2026-05-07 11:35 | 22.31660 | 113.93196 | 37 ft | 4 kts | 162° |
| 2026-05-07 11:35 | 22.31681 | 113.93188 | 37 ft | 4 kts | 161° |
| 2026-05-07 11:35 | 22.31692 | 113.93184 | 37 ft | 0 kts | 161° |
| 2026-05-07 11:41 | 22.31691 | 113.93184 | 37 ft | 0 kts | 161° |
| 2026-05-07 11:41 | 22.31667 | 113.93192 | 37 ft | 5 kts | 171° |
| 2026-05-07 11:41 | 22.31627 | 113.93185 | 37 ft | 7 kts | 208° |
| 2026-05-07 11:41 | 22.31594 | 113.93127 | 37 ft | 11 kts | 252° |
| 2026-05-07 11:42 | 22.31567 | 113.93042 | 37 ft | 13 kts | 251° |
| 2026-05-07 11:42 | 22.31534 | 113.92941 | 37 ft | 15 kts | 251° |
| 2026-05-07 11:42 | 22.31497 | 113.92828 | 37 ft | 17 kts | 250° |
| 2026-05-07 11:42 | 22.31514 | 113.92708 | 37 ft | 18 kts | 300° |
| 2026-05-07 11:43 | 22.31570 | 113.92586 | 37 ft | 19 kts | 295° |
| 2026-05-07 11:43 | 22.31628 | 113.92457 | 38 ft | 20 kts | 296° |
| 2026-05-07 11:43 | 22.31624 | 113.92315 | 38 ft | 20 kts | 249° |
| 2026-05-07 11:43 | 22.31578 | 113.92166 | 38 ft | 21 kts | 250° |
| 2026-05-07 11:44 | 22.31525 | 113.92070 | 38 ft | 15 kts | 196° |
| 2026-05-07 11:44 | 22.31424 | 113.92096 | 38 ft | 16 kts | 161° |
| 2026-05-07 11:44 | 22.31316 | 113.92136 | 38 ft | 17 kts | 161° |
| 2026-05-07 11:44 | 22.31200 | 113.92178 | 37 ft | 18 kts | 161° |
| 2026-05-07 11:45 | 22.31078 | 113.92223 | 37 ft | 19 kts | 161° |
| 2026-05-07 11:45 | 22.30950 | 113.92270 | 37 ft | 20 kts | 161° |
| 2026-05-07 11:45 | 22.30829 | 113.92316 | 37 ft | 14 kts | 160° |
| 2026-05-07 11:45 | 22.30734 | 113.92334 | 37 ft | 15 kts | 208° |
| 2026-05-07 11:46 | 22.30683 | 113.92235 | 37 ft | 16 kts | 253° |
| 2026-05-07 11:46 | 22.30649 | 113.92115 | 37 ft | 17 kts | 252° |
| 2026-05-07 11:46 | 22.30605 | 113.91991 | 37 ft | 18 kts | 252° |
| 2026-05-07 11:46 | 22.30565 | 113.91857 | 37 ft | 19 kts | 251° |
| 2026-05-07 11:47 | 22.30518 | 113.91718 | 37 ft | 20 kts | 250° |
| 2026-05-07 11:47 | 22.30470 | 113.91572 | 37 ft | 21 kts | 251° |
| 2026-05-07 11:47 | 22.30421 | 113.91420 | 37 ft | 22 kts | 251° |
| 2026-05-07 11:47 | 22.30368 | 113.91262 | 38 ft | 23 kts | 249° |
| 2026-05-07 11:48 | 22.30320 | 113.91119 | 38 ft | 10 kts | 252° |
| 2026-05-07 11:48 | 22.30298 | 113.91041 | 38 ft | 12 kts | 252° |
| 2026-05-07 11:48 | 22.30271 | 113.90954 | 38 ft | 13 kts | 251° |
| 2026-05-07 11:48 | 22.30241 | 113.90857 | 38 ft | 14 kts | 251° |
| 2026-05-07 11:49 | 22.30206 | 113.90751 | 37 ft | 16 kts | 250° |
| 2026-05-07 11:49 | 22.30170 | 113.90637 | 37 ft | 17 kts | 251° |
| 2026-05-07 11:49 | 22.30129 | 113.90516 | 37 ft | 18 kts | 250° |
| 2026-05-07 11:49 | 22.30087 | 113.90387 | 37 ft | 19 kts | 250° |
| 2026-05-07 11:50 | 22.30043 | 113.90250 | 37 ft | 20 kts | 251° |
| 2026-05-07 11:50 | 22.29997 | 113.90107 | 37 ft | 21 kts | 250° |
| 2026-05-07 11:50 | 22.29949 | 113.89958 | 37 ft | 21 kts | 251° |
| 2026-05-07 11:50 | 22.29901 | 113.89804 | 37 ft | 16 kts | 251° |
| 2026-05-07 11:51 | 22.29837 | 113.89736 | 37 ft | 15 kts | 180° |
| 2026-05-07 11:51 | 22.29749 | 113.89762 | 37 ft | 8 kts | 161° |
| 2026-05-07 11:51 | 22.29694 | 113.89781 | 36 ft | 8 kts | 161° |
| 2026-05-07 11:51 | 22.29642 | 113.89805 | 35 ft | 8 kts | 136° |
| 2026-05-07 11:52 | 22.29644 | 113.89870 | 35 ft | 10 kts | 70° |
| 2026-05-07 11:52 | 22.29676 | 113.89975 | 35 ft | 35 kts | 71° |
| 2026-05-07 11:52 | 22.29832 | 113.90481 | 36 ft | 104 kts | 72° |
| 2026-05-07 11:52 | 22.30139 | 113.91427 | 37 ft | 161 kts | 73° |
| 2026-05-07 11:53 | 22.30532 | 113.92695 | 280 ft | 186 kts | 71° |
| 2026-05-07 11:53 | 22.30963 | 113.93995 | 998 ft | 182 kts | 73° |
| 2026-05-07 11:53 | 22.31384 | 113.95306 | 1622 ft | 190 kts | 73° |
| 2026-05-07 11:53 | 22.31829 | 113.96691 | 2167 ft | 202 kts | 73° |
| 2026-05-07 11:54 | 22.32303 | 113.98171 | 2775 ft | 214 kts | 72° |
| 2026-05-07 11:54 | 22.32801 | 113.99719 | 3480 ft | 221 kts | 72° |
| 2026-05-07 11:54 | 22.33315 | 114.01323 | 4137 ft | 233 kts | 72° |
| 2026-05-07 11:54 | 22.33841 | 114.03044 | 4665 ft | 248 kts | 79° |
| 2026-05-07 11:55 | 22.33809 | 114.04904 | 5338 ft | 252 kts | 105° |
| 2026-05-07 11:55 | 22.33079 | 114.06629 | 6062 ft | 255 kts | 128° |
| 2026-05-07 11:55 | 22.31807 | 114.07963 | 6755 ft | 257 kts | 148° |
| 2026-05-07 11:55 | 22.30164 | 114.08746 | 7435 ft | 260 kts | 168° |
| 2026-05-07 11:56 | 22.28368 | 114.08938 | 8096 ft | 262 kts | 182° |
| 2026-05-07 11:56 | 22.26499 | 114.08860 | 8552 ft | 275 kts | 184° |
| 2026-05-07 11:56 | 22.24533 | 114.08820 | 8999 ft | 288 kts | 181° |
| 2026-05-07 11:56 | 22.22512 | 114.08822 | 9613 ft | 293 kts | 181° |
| 2026-05-07 11:57 | 22.20456 | 114.08826 | 10213 ft | 300 kts | 181° |
| 2026-05-07 11:57 | 22.18312 | 114.08826 | 10533 ft | 317 kts | 181° |
| 2026-05-07 11:57 | 22.16045 | 114.08824 | 10822 ft | 334 kts | 181° |
| 2026-05-07 11:57 | 22.13681 | 114.08823 | 11274 ft | 344 kts | 181° |
| 2026-05-07 11:58 | 22.11273 | 114.08824 | 11909 ft | 348 kts | 182° |
| 2026-05-07 11:58 | 22.08842 | 114.08825 | 12555 ft | 351 kts | 182° |
| 2026-05-07 11:58 | 22.06388 | 114.08825 | 13194 ft | 354 kts | 182° |
| 2026-05-07 11:58 | 22.03913 | 114.08827 | 13813 ft | 357 kts | 182° |
| 2026-05-07 11:59 | 22.01414 | 114.08827 | 14449 ft | 360 kts | 182° |
| 2026-05-07 11:59 | 21.98895 | 114.08827 | 15052 ft | 364 kts | 182° |
| 2026-05-07 11:59 | 21.96352 | 114.08827 | 15623 ft | 367 kts | 182° |
| 2026-05-07 11:59 | 21.93785 | 114.08829 | 16182 ft | 370 kts | 182° |
| 2026-05-07 12:00 | 21.91202 | 114.08830 | 16745 ft | 372 kts | 182° |
| 2026-05-07 12:00 | 21.88599 | 114.08837 | 17274 ft | 376 kts | 182° |
| 2026-05-07 12:00 | 21.85980 | 114.08841 | 17797 ft | 378 kts | 183° |
| 2026-05-07 12:00 | 21.83337 | 114.08838 | 18307 ft | 381 kts | 183° |
| 2026-05-07 12:01 | 21.80675 | 114.08839 | 18791 ft | 384 kts | 183° |
| 2026-05-07 12:01 | 21.77988 | 114.08841 | 19249 ft | 388 kts | 183° |
| 2026-05-07 12:01 | 21.75277 | 114.08838 | 19683 ft | 391 kts | 183° |
| 2026-05-07 12:01 | 21.72543 | 114.08840 | 20115 ft | 394 kts | 183° |
| 2026-05-07 12:02 | 21.69791 | 114.08841 | 20533 ft | 398 kts | 183° |
| 2026-05-07 12:02 | 21.67012 | 114.08838 | 20954 ft | 401 kts | 183° |
| 2026-05-07 12:02 | 21.64221 | 114.08693 | 21370 ft | 402 kts | 191° |
| 2026-05-07 12:02 | 21.61480 | 114.08113 | 21773 ft | 402 kts | 196° |
| 2026-05-07 12:03 | 21.58752 | 114.07394 | 22171 ft | 405 kts | 197° |
| 2026-05-07 12:03 | 21.56005 | 114.06657 | 22556 ft | 409 kts | 197° |
| 2026-05-07 12:03 | 21.53232 | 114.05923 | 22938 ft | 412 kts | 196° |
| 2026-05-07 12:03 | 21.50475 | 114.05203 | 23292 ft | 414 kts | 196° |
| 2026-05-07 12:04 | 21.47624 | 114.04464 | 23644 ft | 417 kts | 196° |
| 2026-05-07 12:04 | 21.44862 | 114.03646 | 23957 ft | 418 kts | 202° |
| 2026-05-07 12:04 | 21.42223 | 114.02357 | 24263 ft | 417 kts | 212° |
| 2026-05-07 12:04 | 21.39769 | 114.00686 | 24577 ft | 418 kts | 216° |
| 2026-05-07 12:05 | 21.37349 | 113.98940 | 24894 ft | 420 kts | 216° |
| 2026-05-07 12:05 | 21.34916 | 113.97185 | 25214 ft | 423 kts | 216° |
| 2026-05-07 12:05 | 21.32461 | 113.95430 | 25529 ft | 425 kts | 216° |
| 2026-05-07 12:05 | 21.29994 | 113.93678 | 25836 ft | 427 kts | 216° |
| 2026-05-07 12:06 | 21.27501 | 113.91914 | 26125 ft | 429 kts | 216° |
| 2026-05-07 12:06 | 21.25004 | 113.90150 | 26408 ft | 431 kts | 216° |
| 2026-05-07 12:06 | 21.22490 | 113.88374 | 26716 ft | 433 kts | 216° |
| 2026-05-07 12:06 | 21.19972 | 113.86598 | 27128 ft | 434 kts | 216° |
| 2026-05-07 12:07 | 21.17446 | 113.84817 | 27395 ft | 436 kts | 216° |
| 2026-05-07 12:07 | 21.14906 | 113.83026 | 27613 ft | 439 kts | 216° |
| 2026-05-07 12:07 | 21.12365 | 113.81202 | 27839 ft | 441 kts | 218° |
| 2026-05-07 12:07 | 21.10053 | 113.79057 | 28073 ft | 439 kts | 229° |
| 2026-05-07 12:08 | 21.08203 | 113.76473 | 28292 ft | 437 kts | 241° |
| 2026-05-07 12:08 | 21.06896 | 113.73547 | 28482 ft | 437 kts | 251° |
| 2026-05-07 12:08 | 21.05900 | 113.70469 | 28699 ft | 438 kts | 253° |
| 2026-05-07 12:08 | 21.04940 | 113.67366 | 28915 ft | 440 kts | 253° |
| 2026-05-07 12:09 | 21.03959 | 113.64255 | 29159 ft | 442 kts | 253° |
| 2026-05-07 12:09 | 21.02965 | 113.61144 | 29398 ft | 443 kts | 252° |
| 2026-05-07 12:09 | 21.01956 | 113.58024 | 29627 ft | 445 kts | 252° |
| 2026-05-07 12:09 | 21.00937 | 113.54886 | 29866 ft | 447 kts | 252° |
| 2026-05-07 12:10 | 20.99915 | 113.51740 | 30092 ft | 448 kts | 252° |
| 2026-05-07 12:10 | 20.98891 | 113.48589 | 30319 ft | 450 kts | 252° |
| 2026-05-07 12:10 | 20.97862 | 113.45424 | 30564 ft | 451 kts | 252° |
| 2026-05-07 12:10 | 20.96829 | 113.42248 | 30851 ft | 451 kts | 252° |
| 2026-05-07 12:11 | 20.95802 | 113.39086 | 31132 ft | 450 kts | 252° |
| 2026-05-07 12:11 | 20.94777 | 113.35920 | 31429 ft | 449 kts | 253° |
| 2026-05-07 12:11 | 20.93752 | 113.32768 | 31706 ft | 449 kts | 253° |
| 2026-05-07 12:11 | 20.92727 | 113.29618 | 31961 ft | 448 kts | 253° |
| 2026-05-07 12:12 | 20.91700 | 113.26468 | 32240 ft | 447 kts | 253° |
| 2026-05-07 12:12 | 20.90677 | 113.23329 | 32486 ft | 447 kts | 253° |
| 2026-05-07 12:12 | 20.89650 | 113.20193 | 32702 ft | 447 kts | 253° |
| 2026-05-07 12:12 | 20.88624 | 113.17059 | 32951 ft | 446 kts | 253° |
| 2026-05-07 12:13 | 20.87596 | 113.13929 | 33184 ft | 446 kts | 253° |
| 2026-05-07 12:13 | 20.86572 | 113.10802 | 33434 ft | 445 kts | 253° |
| 2026-05-07 12:13 | 20.85552 | 113.07687 | 33669 ft | 444 kts | 253° |
| 2026-05-07 12:13 | 20.84530 | 113.04568 | 33880 ft | 444 kts | 253° |
| 2026-05-07 12:14 | 20.83508 | 113.01453 | 34012 ft | 444 kts | 253° |
| 2026-05-07 12:14 | 20.81464 | 112.95229 | 34012 ft | 443 kts | 253° |
| 2026-05-07 12:15 | 20.79414 | 112.89021 | 34005 ft | 443 kts | 253° |
| 2026-05-07 12:15 | 20.77370 | 112.82812 | 33994 ft | 443 kts | 253° |
| 2026-05-07 12:16 | 20.75322 | 112.76607 | 33991 ft | 443 kts | 253° |
| 2026-05-07 12:16 | 20.73275 | 112.70405 | 33990 ft | 443 kts | 253° |
| 2026-05-07 12:17 | 20.71218 | 112.64192 | 33989 ft | 444 kts | 253° |
| 2026-05-07 12:17 | 20.69161 | 112.57984 | 33989 ft | 443 kts | 253° |
| 2026-05-07 12:18 | 20.67617 | 112.51676 | 33985 ft | 438 kts | 270° |
| 2026-05-07 12:18 | 20.67845 | 112.48443 | 33990 ft | 436 kts | 281° |
| 2026-05-07 12:18 | 20.68398 | 112.45268 | 33991 ft | 435 kts | 282° |
| 2026-05-07 12:19 | 20.69536 | 112.38926 | 33989 ft | 435 kts | 282° |
| 2026-05-07 12:19 | 20.70618 | 112.32575 | 33989 ft | 435 kts | 281° |
| 2026-05-07 12:20 | 20.71507 | 112.27295 | 33991 ft | 435 kts | 281° |
| 2026-05-07 12:20 | 20.72574 | 112.20936 | 33991 ft | 435 kts | 281° |
| 2026-05-07 12:21 | 20.73640 | 112.14574 | 33992 ft | 435 kts | 281° |
| 2026-05-07 12:21 | 20.74706 | 112.08204 | 33992 ft | 435 kts | 281° |
| 2026-05-07 12:22 | 20.75767 | 112.01855 | 33991 ft | 435 kts | 281° |
| 2026-05-07 12:22 | 20.76822 | 111.95483 | 33991 ft | 436 kts | 281° |
| 2026-05-07 12:23 | 20.77875 | 111.89107 | 33991 ft | 436 kts | 281° |
| 2026-05-07 12:23 | 20.78928 | 111.82733 | 33986 ft | 436 kts | 281° |
| 2026-05-07 12:24 | 20.79975 | 111.76355 | 33981 ft | 436 kts | 281° |
| 2026-05-07 12:24 | 20.81032 | 111.69977 | 33980 ft | 436 kts | 281° |
| 2026-05-07 12:25 | 20.82081 | 111.63598 | 33980 ft | 436 kts | 281° |
| 2026-05-07 12:25 | 20.83130 | 111.57221 | 33980 ft | 435 kts | 281° |
| 2026-05-07 12:26 | 20.83871 | 111.50807 | 33977 ft | 437 kts | 270° |
| 2026-05-07 12:26 | 20.83485 | 111.47580 | 33978 ft | 440 kts | 258° |
| 2026-05-07 12:26 | 20.82549 | 111.44456 | 33983 ft | 442 kts | 252° |
| 2026-05-07 12:27 | 20.80408 | 111.38295 | 33981 ft | 442 kts | 252° |
| 2026-05-07 12:27 | 20.78313 | 111.32119 | 33979 ft | 442 kts | 252° |
| 2026-05-07 12:28 | 20.76239 | 111.25937 | 33979 ft | 442 kts | 252° |
| 2026-05-07 12:28 | 20.74158 | 111.19759 | 33980 ft | 442 kts | 252° |
| 2026-05-07 12:29 | 20.72088 | 111.13622 | 33981 ft | 442 kts | 252° |
| 2026-05-07 12:29 | 20.70004 | 111.07446 | 33981 ft | 442 kts | 252° |
| 2026-05-07 12:30 | 20.67918 | 111.01271 | 33981 ft | 442 kts | 252° |
| 2026-05-07 12:30 | 20.65827 | 110.95092 | 33983 ft | 443 kts | 252° |
| 2026-05-07 12:31 | 20.63734 | 110.88904 | 33982 ft | 443 kts | 252° |
| 2026-05-07 12:31 | 20.61656 | 110.82701 | 33981 ft | 443 kts | 252° |
| 2026-05-07 12:32 | 20.59575 | 110.76506 | 33979 ft | 444 kts | 252° |
| 2026-05-07 12:32 | 20.57485 | 110.70299 | 33980 ft | 444 kts | 252° |
| 2026-05-07 12:33 | 20.54348 | 110.60994 | 33983 ft | 444 kts | 252° |
| 2026-05-07 12:33 | 20.52259 | 110.54795 | 33981 ft | 444 kts | 252° |
| 2026-05-07 12:34 | 20.49806 | 110.48742 | 33977 ft | 449 kts | 239° |
| 2026-05-07 12:34 | 20.45950 | 110.43483 | 33982 ft | 452 kts | 233° |
| 2026-05-07 12:35 | 20.41963 | 110.38321 | 33981 ft | 451 kts | 233° |
| 2026-05-07 12:35 | 20.37992 | 110.33139 | 33978 ft | 451 kts | 233° |
| 2026-05-07 12:36 | 20.34031 | 110.27959 | 33978 ft | 450 kts | 233° |
| 2026-05-07 12:36 | 20.30072 | 110.22789 | 33980 ft | 451 kts | 233° |
| 2026-05-07 12:37 | 20.26158 | 110.17580 | 33976 ft | 451 kts | 234° |
| 2026-05-07 12:37 | 20.22257 | 110.12354 | 33979 ft | 450 kts | 234° |
| 2026-05-07 12:38 | 20.18349 | 110.07142 | 33981 ft | 450 kts | 234° |
| 2026-05-07 12:38 | 20.14443 | 110.01938 | 33980 ft | 450 kts | 234° |
| 2026-05-07 12:39 | 20.10535 | 109.96735 | 33972 ft | 450 kts | 234° |
| 2026-05-07 12:39 | 20.06650 | 109.91573 | 33974 ft | 450 kts | 234° |
| 2026-05-07 12:40 | 20.02737 | 109.86378 | 33975 ft | 451 kts | 234° |
| 2026-05-07 12:40 | 19.98823 | 109.81182 | 33969 ft | 450 kts | 234° |
| 2026-05-07 12:41 | 19.94915 | 109.75998 | 33972 ft | 450 kts | 234° |
| 2026-05-07 12:41 | 19.90999 | 109.70811 | 33968 ft | 450 kts | 234° |
| 2026-05-07 12:42 | 19.87081 | 109.65628 | 33971 ft | 450 kts | 234° |
| 2026-05-07 12:42 | 19.83163 | 109.60446 | 33966 ft | 450 kts | 234° |
| 2026-05-07 12:43 | 19.79246 | 109.55271 | 33972 ft | 450 kts | 233° |
| 2026-05-07 12:43 | 19.75325 | 109.50092 | 33971 ft | 450 kts | 233° |
| 2026-05-07 12:44 | 19.71407 | 109.44923 | 33971 ft | 449 kts | 233° |
| 2026-05-07 12:44 | 19.67490 | 109.39761 | 33971 ft | 449 kts | 233° |
| 2026-05-07 12:45 | 19.63566 | 109.34598 | 33969 ft | 449 kts | 233° |
| 2026-05-07 12:45 | 19.59646 | 109.29440 | 33957 ft | 449 kts | 233° |
| 2026-05-07 12:46 | 19.55722 | 109.24281 | 33953 ft | 449 kts | 233° |
| 2026-05-07 12:46 | 19.51805 | 109.19137 | 33950 ft | 448 kts | 233° |
| 2026-05-07 12:47 | 19.47855 | 109.14016 | 33953 ft | 449 kts | 233° |
| 2026-05-07 12:47 | 19.43921 | 109.08931 | 33962 ft | 449 kts | 233° |
| 2026-05-07 12:48 | 19.39971 | 109.03808 | 33955 ft | 449 kts | 233° |
| 2026-05-07 12:48 | 19.36013 | 108.98687 | 33961 ft | 449 kts | 233° |
| 2026-05-07 12:49 | 19.32069 | 108.93576 | 33957 ft | 448 kts | 233° |
| 2026-05-07 12:49 | 19.28116 | 108.88459 | 33967 ft | 448 kts | 233° |
| 2026-05-07 12:50 | 19.24158 | 108.83354 | 33961 ft | 449 kts | 233° |
| 2026-05-07 12:50 | 19.20207 | 108.78239 | 33960 ft | 449 kts | 233° |
| 2026-05-07 12:51 | 19.16256 | 108.73137 | 33961 ft | 448 kts | 233° |
| 2026-05-07 12:51 | 19.12295 | 108.68037 | 33959 ft | 448 kts | 233° |
| 2026-05-07 12:52 | 19.08344 | 108.62941 | 33964 ft | 448 kts | 233° |
| 2026-05-07 12:52 | 19.04389 | 108.57856 | 33969 ft | 448 kts | 233° |
| 2026-05-07 12:53 | 19.00430 | 108.52770 | 33956 ft | 448 kts | 233° |
| 2026-05-07 12:53 | 18.96472 | 108.47683 | 33959 ft | 449 kts | 233° |
| 2026-05-07 12:54 | 18.92506 | 108.42585 | 33955 ft | 449 kts | 233° |
| 2026-05-07 12:54 | 18.88540 | 108.37497 | 33946 ft | 449 kts | 233° |
| 2026-05-07 12:55 | 18.84570 | 108.32412 | 33955 ft | 449 kts | 233° |
| 2026-05-07 12:55 | 18.80597 | 108.27327 | 33942 ft | 449 kts | 232° |
| 2026-05-07 12:56 | 18.76623 | 108.22248 | 33948 ft | 449 kts | 232° |
| 2026-05-07 12:56 | 18.72643 | 108.17163 | 33954 ft | 450 kts | 232° |
| 2026-05-07 12:57 | 18.68661 | 108.12080 | 33945 ft | 450 kts | 232° |
| 2026-05-07 12:57 | 18.64682 | 108.06995 | 33953 ft | 449 kts | 232° |
| 2026-05-07 12:58 | 18.60701 | 108.01915 | 33945 ft | 449 kts | 232° |
| 2026-05-07 12:58 | 18.56719 | 107.96845 | 33949 ft | 449 kts | 232° |
| 2026-05-07 12:59 | 18.52738 | 107.91777 | 33948 ft | 449 kts | 232° |
| 2026-05-07 12:59 | 18.48753 | 107.86712 | 33945 ft | 449 kts | 232° |
| 2026-05-07 13:00 | 18.44762 | 107.81647 | 33950 ft | 449 kts | 232° |
| 2026-05-07 13:00 | 18.40781 | 107.76585 | 33943 ft | 449 kts | 232° |
| 2026-05-07 13:01 | 18.36793 | 107.71521 | 33961 ft | 449 kts | 232° |
| 2026-05-07 13:01 | 18.33009 | 107.66309 | 33955 ft | 447 kts | 239° |
| 2026-05-07 13:02 | 18.29680 | 107.60789 | 33955 ft | 447 kts | 239° |
| 2026-05-07 13:02 | 18.26350 | 107.55263 | 33954 ft | 447 kts | 239° |
| 2026-05-07 13:03 | 18.23015 | 107.49747 | 33956 ft | 447 kts | 239° |
| 2026-05-07 13:03 | 18.19676 | 107.44230 | 33952 ft | 447 kts | 239° |
| 2026-05-07 13:04 | 18.16336 | 107.38719 | 33952 ft | 447 kts | 239° |
| 2026-05-07 13:04 | 18.12993 | 107.33212 | 33947 ft | 447 kts | 239° |
| 2026-05-07 13:05 | 18.09652 | 107.27708 | 33956 ft | 447 kts | 239° |
| 2026-05-07 13:05 | 18.06875 | 107.23133 | 33946 ft | 447 kts | 239° |
| 2026-05-07 13:06 | 18.02982 | 107.16746 | 33951 ft | 446 kts | 239° |
| 2026-05-07 13:06 | 18.00181 | 107.12152 | 33937 ft | 446 kts | 239° |
| 2026-05-07 13:07 | 17.96832 | 107.06660 | 33947 ft | 447 kts | 239° |
| 2026-05-07 13:07 | 17.93468 | 107.01156 | 33942 ft | 448 kts | 239° |
| 2026-05-07 13:08 | 17.90102 | 106.95654 | 33952 ft | 448 kts | 239° |
| 2026-05-07 13:08 | 17.86754 | 106.90141 | 33947 ft | 448 kts | 239° |
| 2026-05-07 13:09 | 17.83412 | 106.84627 | 33943 ft | 447 kts | 239° |
| 2026-05-07 13:09 | 17.80062 | 106.79117 | 33947 ft | 447 kts | 239° |
| 2026-05-07 13:10 | 17.76716 | 106.73619 | 33956 ft | 448 kts | 239° |
| 2026-05-07 13:10 | 17.73358 | 106.68117 | 33948 ft | 447 kts | 239° |
| 2026-05-07 13:11 | 17.70006 | 106.62629 | 33954 ft | 447 kts | 239° |
| 2026-05-07 13:11 | 17.66651 | 106.57142 | 33947 ft | 447 kts | 239° |
| 2026-05-07 13:12 | 17.63292 | 106.51659 | 33954 ft | 447 kts | 239° |
| 2026-05-07 13:12 | 17.59937 | 106.46181 | 33946 ft | 447 kts | 239° |
| 2026-05-07 13:13 | 17.56595 | 106.40739 | 33958 ft | 446 kts | 239° |
| 2026-05-07 13:13 | 17.53236 | 106.35261 | 33949 ft | 447 kts | 239° |
| 2026-05-07 13:14 | 17.49874 | 106.29789 | 33956 ft | 447 kts | 239° |
| 2026-05-07 13:14 | 17.46505 | 106.24319 | 33953 ft | 447 kts | 239° |
| 2026-05-07 13:15 | 17.43140 | 106.18849 | 33951 ft | 447 kts | 239° |
| 2026-05-07 13:15 | 17.39769 | 106.13379 | 33949 ft | 447 kts | 239° |
| 2026-05-07 13:16 | 17.36391 | 106.07911 | 33951 ft | 447 kts | 239° |
| 2026-05-07 13:16 | 17.33059 | 106.02413 | 33966 ft | 447 kts | 239° |
| 2026-05-07 13:17 | 17.29739 | 105.96910 | 33960 ft | 447 kts | 239° |
| 2026-05-07 13:17 | 17.26405 | 105.91419 | 33955 ft | 447 kts | 239° |
| 2026-05-07 13:18 | 17.23074 | 105.85925 | 33962 ft | 447 kts | 239° |
| 2026-05-07 13:18 | 17.19745 | 105.80431 | 33954 ft | 448 kts | 239° |
| 2026-05-07 13:19 | 17.16408 | 105.74937 | 33955 ft | 447 kts | 239° |
| 2026-05-07 13:19 | 17.13068 | 105.69444 | 33959 ft | 447 kts | 239° |
| 2026-05-07 13:20 | 17.09726 | 105.63953 | 33968 ft | 448 kts | 239° |
| 2026-05-07 13:20 | 17.06380 | 105.58455 | 33963 ft | 448 kts | 239° |
| 2026-05-07 13:21 | 17.03032 | 105.52963 | 33961 ft | 448 kts | 239° |
| 2026-05-07 13:21 | 16.99683 | 105.47475 | 33964 ft | 448 kts | 239° |
| 2026-05-07 13:22 | 16.96334 | 105.41985 | 33958 ft | 448 kts | 239° |
| 2026-05-07 13:22 | 16.92979 | 105.36495 | 33961 ft | 448 kts | 239° |
| 2026-05-07 13:23 | 16.89626 | 105.31012 | 33958 ft | 448 kts | 239° |
| 2026-05-07 13:23 | 16.86268 | 105.25531 | 33960 ft | 448 kts | 239° |
| 2026-05-07 13:24 | 16.82935 | 105.20089 | 33966 ft | 448 kts | 239° |
| 2026-05-07 13:24 | 16.79572 | 105.14614 | 33970 ft | 448 kts | 239° |
| 2026-05-07 13:25 | 16.76214 | 105.09149 | 33969 ft | 448 kts | 239° |
| 2026-05-07 13:25 | 16.72847 | 105.03673 | 33970 ft | 448 kts | 239° |
| 2026-05-07 13:26 | 16.69480 | 104.98206 | 33965 ft | 448 kts | 239° |
| 2026-05-07 13:26 | 16.66113 | 104.92738 | 33970 ft | 448 kts | 239° |
| 2026-05-07 13:27 | 16.62749 | 104.87274 | 33972 ft | 448 kts | 239° |
| 2026-05-07 13:27 | 16.59376 | 104.81808 | 33971 ft | 448 kts | 239° |
| 2026-05-07 13:28 | 16.55928 | 104.76401 | 33975 ft | 449 kts | 233° |
| 2026-05-07 13:28 | 16.51792 | 104.71496 | 33978 ft | 450 kts | 230° |
| 2026-05-07 13:29 | 16.47595 | 104.66644 | 33978 ft | 450 kts | 230° |
| 2026-05-07 13:29 | 16.43417 | 104.61783 | 33972 ft | 451 kts | 230° |
| 2026-05-07 13:30 | 16.39234 | 104.56920 | 33966 ft | 450 kts | 230° |
| 2026-05-07 13:30 | 16.35081 | 104.52091 | 33962 ft | 451 kts | 230° |
| 2026-05-07 13:31 | 16.30896 | 104.47233 | 33961 ft | 451 kts | 230° |
| 2026-05-07 13:31 | 16.26708 | 104.42373 | 33956 ft | 451 kts | 230° |
| 2026-05-07 13:32 | 16.22494 | 104.37542 | 33949 ft | 451 kts | 229° |
| 2026-05-07 13:32 | 16.18264 | 104.32722 | 33945 ft | 451 kts | 229° |
| 2026-05-07 13:33 | 16.14041 | 104.27898 | 33950 ft | 451 kts | 229° |
| 2026-05-07 13:33 | 16.09822 | 104.23080 | 33950 ft | 451 kts | 229° |
| 2026-05-07 13:34 | 16.03498 | 104.15836 | 33954 ft | 451 kts | 230° |
| 2026-05-07 13:35 | 15.99334 | 104.10957 | 33956 ft | 451 kts | 230° |
| 2026-05-07 13:35 | 15.95167 | 104.06090 | 33949 ft | 451 kts | 230° |
| 2026-05-07 13:36 | 15.90991 | 104.01225 | 33945 ft | 451 kts | 230° |
| 2026-05-07 13:36 | 15.86811 | 103.96361 | 33955 ft | 451 kts | 230° |
| 2026-05-07 13:37 | 15.82626 | 103.91512 | 33948 ft | 451 kts | 230° |
| 2026-05-07 13:37 | 15.78445 | 103.86653 | 33954 ft | 451 kts | 230° |
| 2026-05-07 13:38 | 15.74266 | 103.81800 | 33943 ft | 451 kts | 230° |
| 2026-05-07 13:38 | 15.70079 | 103.76942 | 33956 ft | 451 kts | 230° |
| 2026-05-07 13:39 | 15.65909 | 103.72082 | 33954 ft | 451 kts | 230° |
| 2026-05-07 13:39 | 15.61756 | 103.67258 | 33948 ft | 452 kts | 230° |
| 2026-05-07 13:40 | 15.57559 | 103.62399 | 33955 ft | 452 kts | 230° |
| 2026-05-07 13:40 | 15.53366 | 103.57544 | 33950 ft | 452 kts | 230° |
| 2026-05-07 13:41 | 15.49171 | 103.52687 | 33953 ft | 452 kts | 230° |
| 2026-05-07 13:41 | 15.44973 | 103.47830 | 33963 ft | 453 kts | 230° |
| 2026-05-07 13:42 | 15.40764 | 103.42967 | 33959 ft | 453 kts | 230° |
| 2026-05-07 13:42 | 15.36556 | 103.38107 | 33955 ft | 454 kts | 230° |
| 2026-05-07 13:43 | 15.32338 | 103.33237 | 33947 ft | 454 kts | 230° |
| 2026-05-07 13:43 | 15.28122 | 103.28375 | 33947 ft | 454 kts | 230° |
| 2026-05-07 13:44 | 15.23905 | 103.23513 | 33950 ft | 454 kts | 230° |
| 2026-05-07 13:44 | 15.19690 | 103.18660 | 33952 ft | 454 kts | 230° |
| 2026-05-07 13:45 | 15.15461 | 103.13791 | 33958 ft | 454 kts | 229° |
| 2026-05-07 13:45 | 15.11241 | 103.08934 | 33945 ft | 454 kts | 229° |
| 2026-05-07 13:46 | 15.07049 | 103.04112 | 33943 ft | 454 kts | 229° |
| 2026-05-07 13:46 | 15.02352 | 102.99771 | 33948 ft | 457 kts | 213° |
| 2026-05-07 13:47 | 14.96872 | 102.96425 | 33956 ft | 457 kts | 212° |
| 2026-05-07 13:47 | 14.91387 | 102.93097 | 33954 ft | 457 kts | 213° |
| 2026-05-07 13:47 | 14.88833 | 102.91160 | 33952 ft | 455 kts | 224° |
| 2026-05-07 13:48 | 14.86759 | 102.88708 | 33948 ft | 452 kts | 237° |
| 2026-05-07 13:48 | 14.85309 | 102.85852 | 33944 ft | 449 kts | 250° |
| 2026-05-07 13:48 | 14.84328 | 102.82790 | 33957 ft | 449 kts | 254° |
| 2026-05-07 13:49 | 14.82521 | 102.76621 | 33946 ft | 449 kts | 254° |
| 2026-05-07 13:49 | 14.80656 | 102.70470 | 33944 ft | 449 kts | 253° |
| 2026-05-07 13:50 | 14.78766 | 102.64318 | 33945 ft | 449 kts | 253° |
| 2026-05-07 13:50 | 14.76876 | 102.58168 | 33947 ft | 449 kts | 253° |
| 2026-05-07 13:51 | 14.74986 | 102.52029 | 33955 ft | 448 kts | 253° |
| 2026-05-07 13:51 | 14.73105 | 102.45918 | 33946 ft | 444 kts | 253° |
| 2026-05-07 13:51 | 14.72177 | 102.42914 | 33738 ft | 438 kts | 253° |
| 2026-05-07 13:52 | 14.71247 | 102.39907 | 33483 ft | 440 kts | 253° |
| 2026-05-07 13:52 | 14.70317 | 102.36900 | 33232 ft | 439 kts | 253° |
| 2026-05-07 13:52 | 14.69386 | 102.33899 | 32977 ft | 438 kts | 253° |
| 2026-05-07 13:52 | 14.68462 | 102.30904 | 32722 ft | 437 kts | 253° |
| 2026-05-07 13:53 | 14.67553 | 102.27955 | 32492 ft | 436 kts | 253° |
| 2026-05-07 13:53 | 14.66631 | 102.24976 | 32235 ft | 435 kts | 253° |
| 2026-05-07 13:53 | 14.65715 | 102.22007 | 31979 ft | 434 kts | 253° |
| 2026-05-07 13:53 | 14.64799 | 102.19044 | 31733 ft | 432 kts | 253° |
| 2026-05-07 13:54 | 14.63882 | 102.16088 | 31466 ft | 431 kts | 253° |
| 2026-05-07 13:54 | 14.62972 | 102.13154 | 31063 ft | 428 kts | 253° |
| 2026-05-07 13:54 | 14.62069 | 102.10236 | 30584 ft | 425 kts | 253° |
| 2026-05-07 13:54 | 14.61171 | 102.07343 | 30091 ft | 422 kts | 252° |
| 2026-05-07 13:55 | 14.60278 | 102.04473 | 29609 ft | 420 kts | 252° |
| 2026-05-07 13:55 | 14.59384 | 102.01602 | 29099 ft | 419 kts | 252° |
| 2026-05-07 13:55 | 14.58499 | 101.98750 | 28585 ft | 417 kts | 252° |
| 2026-05-07 13:55 | 14.57614 | 101.95897 | 28086 ft | 415 kts | 252° |
| 2026-05-07 13:56 | 14.56734 | 101.93077 | 27608 ft | 412 kts | 252° |
| 2026-05-07 13:56 | 14.56089 | 101.91236 | 27291 ft | 410 kts | 248° |
| 2026-05-07 13:56 | 14.55012 | 101.88514 | 26787 ft | 409 kts | 248° |
| 2026-05-07 13:56 | 14.53923 | 101.85808 | 26289 ft | 408 kts | 247° |
| 2026-05-07 13:57 | 14.52838 | 101.83112 | 25800 ft | 406 kts | 247° |
| 2026-05-07 13:57 | 14.51759 | 101.80426 | 25309 ft | 404 kts | 247° |
| 2026-05-07 13:57 | 14.50684 | 101.77749 | 24830 ft | 403 kts | 247° |
| 2026-05-07 13:57 | 14.49615 | 101.75083 | 24334 ft | 401 kts | 247° |
| 2026-05-07 13:58 | 14.48553 | 101.72432 | 23833 ft | 399 kts | 247° |
| 2026-05-07 13:58 | 14.47493 | 101.69784 | 23341 ft | 398 kts | 247° |
| 2026-05-07 13:58 | 14.46440 | 101.67152 | 22871 ft | 396 kts | 247° |
| 2026-05-07 13:58 | 14.45388 | 101.64534 | 22407 ft | 394 kts | 247° |
| 2026-05-07 13:59 | 14.44340 | 101.61923 | 21911 ft | 393 kts | 247° |
| 2026-05-07 13:59 | 14.43296 | 101.59324 | 21417 ft | 391 kts | 247° |
| 2026-05-07 13:59 | 14.42260 | 101.56737 | 20945 ft | 390 kts | 247° |
| 2026-05-07 13:59 | 14.41228 | 101.54159 | 20464 ft | 388 kts | 247° |
| 2026-05-07 14:00 | 14.40204 | 101.51602 | 19995 ft | 385 kts | 247° |
| 2026-05-07 14:00 | 14.39183 | 101.49055 | 19551 ft | 382 kts | 247° |
| 2026-05-07 14:00 | 14.38168 | 101.46529 | 19118 ft | 380 kts | 247° |
| 2026-05-07 14:00 | 14.37159 | 101.44020 | 18689 ft | 379 kts | 247° |
| 2026-05-07 14:01 | 14.36151 | 101.41514 | 18256 ft | 378 kts | 247° |
| 2026-05-07 14:01 | 14.35145 | 101.39017 | 17840 ft | 375 kts | 247° |
| 2026-05-07 14:01 | 14.34150 | 101.36550 | 17434 ft | 369 kts | 247° |
| 2026-05-07 14:01 | 14.33172 | 101.34127 | 17030 ft | 364 kts | 247° |
| 2026-05-07 14:02 | 14.32208 | 101.31734 | 16625 ft | 358 kts | 247° |
| 2026-05-07 14:02 | 14.31203 | 101.29411 | 16221 ft | 352 kts | 239° |
| 2026-05-07 14:02 | 14.29694 | 101.27465 | 15847 ft | 345 kts | 221° |
| 2026-05-07 14:02 | 14.27874 | 101.25884 | 15492 ft | 342 kts | 218° |
| 2026-05-07 14:03 | 14.26022 | 101.24355 | 15131 ft | 341 kts | 218° |
| 2026-05-07 14:03 | 14.24177 | 101.22820 | 14760 ft | 340 kts | 218° |
| 2026-05-07 14:03 | 14.22342 | 101.21274 | 14381 ft | 340 kts | 218° |
| 2026-05-07 14:03 | 14.20513 | 101.19726 | 13997 ft | 341 kts | 218° |
| 2026-05-07 14:04 | 14.18680 | 101.18173 | 13625 ft | 340 kts | 218° |
| 2026-05-07 14:04 | 14.16857 | 101.16625 | 13267 ft | 340 kts | 218° |
| 2026-05-07 14:04 | 14.15038 | 101.15079 | 12909 ft | 339 kts | 218° |
| 2026-05-07 14:04 | 14.13220 | 101.13535 | 12551 ft | 338 kts | 218° |
| 2026-05-07 14:05 | 14.11439 | 101.12024 | 12224 ft | 333 kts | 218° |
| 2026-05-07 14:05 | 14.09655 | 101.10506 | 11901 ft | 332 kts | 218° |
| 2026-05-07 14:05 | 14.07884 | 101.08994 | 11560 ft | 330 kts | 218° |
| 2026-05-07 14:05 | 14.06082 | 101.07531 | 11192 ft | 329 kts | 211° |
| 2026-05-07 14:06 | 14.04015 | 101.06636 | 10892 ft | 318 kts | 194° |
| 2026-05-07 14:06 | 14.01911 | 101.06070 | 10712 ft | 307 kts | 192° |
| 2026-05-07 14:06 | 13.99856 | 101.05538 | 10389 ft | 303 kts | 193° |
| 2026-05-07 14:06 | 13.97822 | 101.05002 | 10000 ft | 301 kts | 193° |
| 2026-05-07 14:07 | 13.95803 | 101.04459 | 9602 ft | 299 kts | 193° |
| 2026-05-07 14:07 | 13.93797 | 101.03916 | 9226 ft | 297 kts | 193° |
| 2026-05-07 14:07 | 13.91799 | 101.03372 | 8864 ft | 297 kts | 194° |
| 2026-05-07 14:07 | 13.89799 | 101.02824 | 8513 ft | 297 kts | 194° |
| 2026-05-07 14:08 | 13.87804 | 101.02278 | 8172 ft | 296 kts | 194° |
| 2026-05-07 14:08 | 13.85826 | 101.01736 | 7838 ft | 292 kts | 194° |
| 2026-05-07 14:08 | 13.83904 | 101.01115 | 7501 ft | 290 kts | 204° |
| 2026-05-07 14:08 | 13.82291 | 100.99886 | 7172 ft | 291 kts | 230° |
| 2026-05-07 14:09 | 13.81371 | 100.98055 | 6844 ft | 290 kts | 256° |
| 2026-05-07 14:09 | 13.81331 | 100.96024 | 6611 ft | 283 kts | 281° |
| 2026-05-07 14:09 | 13.81818 | 100.94107 | 6517 ft | 269 kts | 287° |
| 2026-05-07 14:09 | 13.82338 | 100.92318 | 6571 ft | 255 kts | 287° |
| 2026-05-07 14:10 | 13.83011 | 100.90646 | 6536 ft | 249 kts | 306° |
| 2026-05-07 14:10 | 13.84260 | 100.89531 | 6380 ft | 234 kts | 337° |
| 2026-05-07 14:10 | 13.85812 | 100.89241 | 6126 ft | 226 kts | 7° |
| 2026-05-07 14:10 | 13.87340 | 100.89603 | 5965 ft | 225 kts | 18° |
| 2026-05-07 14:11 | 13.88835 | 100.90085 | 5798 ft | 225 kts | 18° |
| 2026-05-07 14:11 | 13.90336 | 100.90543 | 5609 ft | 224 kts | 17° |
| 2026-05-07 14:11 | 13.91836 | 100.90969 | 5340 ft | 222 kts | 13° |
| 2026-05-07 14:11 | 13.93360 | 100.90890 | 4910 ft | 222 kts | 343° |
| 2026-05-07 14:12 | 13.94659 | 100.90059 | 4518 ft | 219 kts | 313° |
| 2026-05-07 14:12 | 13.95393 | 100.88750 | 4333 ft | 206 kts | 286° |
| 2026-05-07 14:12 | 13.95492 | 100.87330 | 4089 ft | 197 kts | 261° |
| 2026-05-07 14:12 | 13.95012 | 100.86038 | 3773 ft | 194 kts | 236° |
| 2026-05-07 14:13 | 13.94061 | 100.85077 | 3586 ft | 193 kts | 213° |
| 2026-05-07 14:13 | 13.92880 | 100.84436 | 3542 ft | 192 kts | 206° |
| 2026-05-07 14:13 | 13.91691 | 100.83815 | 3558 ft | 191 kts | 207° |
| 2026-05-07 14:13 | 13.90511 | 100.83183 | 3566 ft | 191 kts | 207° |
| 2026-05-07 14:14 | 13.89382 | 100.82459 | 3548 ft | 191 kts | 215° |
| 2026-05-07 14:14 | 13.88275 | 100.81698 | 3559 ft | 191 kts | 210° |
| 2026-05-07 14:14 | 13.87090 | 100.81083 | 3503 ft | 191 kts | 203° |
| 2026-05-07 14:14 | 13.85846 | 100.80601 | 3321 ft | 190 kts | 198° |
| 2026-05-07 14:15 | 13.84579 | 100.80204 | 3161 ft | 190 kts | 196° |
| 2026-05-07 14:15 | 13.83320 | 100.79848 | 2909 ft | 185 kts | 195° |
| 2026-05-07 14:15 | 13.82095 | 100.79519 | 2649 ft | 179 kts | 195° |
| 2026-05-07 14:15 | 13.80911 | 100.79205 | 2398 ft | 171 kts | 194° |
| 2026-05-07 14:16 | 13.79785 | 100.78907 | 2152 ft | 164 kts | 194° |
| 2026-05-07 14:16 | 13.78680 | 100.78615 | 1933 ft | 164 kts | 194° |
| 2026-05-07 14:16 | 13.77580 | 100.78324 | 1735 ft | 163 kts | 194° |
| 2026-05-07 14:16 | 13.76481 | 100.78033 | 1521 ft | 163 kts | 194° |
| 2026-05-07 14:17 | 13.75387 | 100.77744 | 1297 ft | 162 kts | 194° |
| 2026-05-07 14:17 | 13.74368 | 100.77475 | 1071 ft | 140 kts | 193° |
| 2026-05-07 14:17 | 13.73437 | 100.77229 | 893 ft | 137 kts | 193° |
| 2026-05-07 14:17 | 13.72511 | 100.76985 | 717 ft | 137 kts | 193° |
| 2026-05-07 14:18 | 13.71590 | 100.76741 | 535 ft | 137 kts | 193° |
| 2026-05-07 14:18 | 13.70672 | 100.76499 | 360 ft | 135 kts | 193° |
| 2026-05-07 14:18 | 13.69752 | 100.76256 | 175 ft | 136 kts | 194° |
| 2026-05-07 14:18 | 13.68836 | 100.76014 | 37 ft | 133 kts | 194° |
| 2026-05-07 14:19 | 13.68036 | 100.75802 | 17 ft | 92 kts | 194° |
| 2026-05-07 14:19 | 13.67643 | 100.75696 | 16 ft | 17 kts | 207° |
| 2026-05-07 14:19 | 13.67547 | 100.75634 | 19 ft | 13 kts | 218° |
| 2026-05-07 14:19 | 13.67474 | 100.75565 | 20 ft | 15 kts | 226° |
| 2026-05-07 14:20 | 13.67455 | 100.75543 | 18 ft | 1 kts | 236° |
| 2026-05-07 14:20 | 13.67446 | 100.75527 | 18 ft | 4 kts | 249° |
| 2026-05-07 14:20 | 13.67446 | 100.75496 | 18 ft | 0 kts | 289° |
| 2026-05-07 14:23 | 13.67447 | 100.75495 | 18 ft | 1 kts | 289° |
| 2026-05-07 14:24 | 13.67458 | 100.75479 | 18 ft | 5 kts | 321° |
| 2026-05-07 14:24 | 13.67501 | 100.75475 | 18 ft | 8 kts | 11° |
| 2026-05-07 14:24 | 13.67562 | 100.75491 | 18 ft | 10 kts | 15° |
| 2026-05-07 14:24 | 13.67639 | 100.75512 | 18 ft | 12 kts | 14° |
| 2026-05-07 14:25 | 13.67730 | 100.75526 | 18 ft | 14 kts | 347° |
| 2026-05-07 14:25 | 13.67811 | 100.75459 | 19 ft | 16 kts | 352° |
| 2026-05-07 14:25 | 13.67894 | 100.75388 | 18 ft | 18 kts | 283° |
| 2026-05-07 14:25 | 13.67920 | 100.75267 | 18 ft | 18 kts | 284° |
| 2026-05-07 14:26 | 13.67946 | 100.75170 | 18 ft | 0 kts | 285° |
| 2026-05-07 14:27 | 13.67946 | 100.75168 | 18 ft | 1 kts | 285° |
| 2026-05-07 14:27 | 13.67956 | 100.75154 | 21 ft | 4 kts | 326° |
| 2026-05-07 14:27 | 13.67991 | 100.75152 | 18 ft | 6 kts | 9° |
| 2026-05-07 14:27 | 13.68031 | 100.75162 | 18 ft | 3 kts | 15° |
| 2026-05-07 14:28 | 13.68050 | 100.75167 | 18 ft | 0 kts | 13° |